Latest Weather Observations for Dum In Mirrie

IDD60901

Issued at 8:35 pm CST Wednesday 30 July 2014 (issued every 10 minutes, with the page automatically refreshed every 10 minutes)

About weather observations | Map of Darwin area stations | Latest observations for Darwin area | Other Formats
Station Details ID: 014277 Name: DUM IN MIRRIE AIRSTRIP Lat: -12.63 Lon: 130.37 Height: 3.5 m
Data from the previous 72 hours. | See also: Recent months at Dum In Mirrie
Date/Time
CST
Tmp

°C
App
Tmp
°C
Dew
Point
°C
Rel
Hum
%
Delta-T

°C
Wind Press
QNH
hPa
Press
MSL
hPa
Rain
since
9 am
mm
Dir
 
Spd
km/h
Gust
km/h
Spd
kts
Gust
kts
30/08:30pm 22.1 25.0 18.3 79 2.4 WNW 0 0 0 0 1014.1 1014.1 0.0
30/08:00pm 22.9 25.9 18.4 76 2.8 CALM 0 2 0 1 1013.8 - 0.0
30/07:30pm 24.1 27.1 18.5 71 3.5 CALM 0 0 0 0 1013.4 1013.4 0.0
30/07:00pm 25.2 27.6 18.9 68 4.0 N 4 7 2 4 1013.0 - 0.0
30/06:30pm 26.0 28.0 18.7 64 4.7 N 6 11 3 6 1012.8 1012.8 0.0
30/06:00pm 27.1 29.1 19.2 62 5.1 NW 7 13 4 7 1012.6 1012.6 0.0
30/05:30pm 27.6 29.0 18.6 58 5.8 NW 9 17 5 9 1012.4 1012.4 0.0
30/05:00pm 28.2 29.4 18.3 55 6.3 NNW 9 15 5 8 1012.2 - 0.0
30/04:30pm 28.1 29.8 20.1 62 5.2 WNW 11 17 6 9 1012.1 1012.1 0.0
30/04:00pm 29.2 31.3 20.1 58 6.0 NW 9 17 5 9 1011.9 - 0.0
30/03:30pm 29.0 30.8 20.4 59 5.7 WNW 11 19 6 10 1011.9 1011.9 0.0
30/03:00pm 29.3 31.5 20.5 59 5.8 WNW 9 20 5 11 1012.1 1012.1 0.0
30/02:30pm 32.5 30.9 12.7 30 11.8 ESE 13 22 7 12 1012.4 1012.4 0.0
30/02:00pm 32.6 31.3 13.8 32 11.4 E 13 20 7 11 1012.9 - 0.0
30/01:30pm 31.6 29.8 13.4 33 10.9 ESE 15 20 8 11 1013.3 1013.3 0.0
30/01:00pm 31.8 30.9 14.9 36 10.4 ESE 13 20 7 11 1013.8 - 0.0
30/12:30pm 31.1 30.3 15.1 38 9.8 ESE 13 24 7 13 1014.2 1014.2 0.0
30/12:00pm 30.4 29.7 15.3 40 9.3 ESE 13 24 7 13 1014.8 1014.8 0.0
30/11:30am 29.6 29.9 17.1 47 7.9 E 11 20 6 11 1015.3 1015.3 0.0
30/11:00am 29.2 29.7 17.4 49 7.5 E 11 22 6 12 1015.8 - 0.0
30/10:30am 28.2 29.4 18.3 55 6.3 ESE 9 13 5 7 1016.3 1016.3 0.0
30/10:00am 27.4 29.3 18.9 59 5.5 ESE 7 15 4 8 1016.4 - 0.0
30/09:30am 26.4 29.5 21.4 74 3.3 ESE 7 13 4 7 1016.5 1016.5 0.0
30/09:00am 25.9 29.9 22.0 79 2.6 E 4 7 2 4 1016.2 1016.2 0.0
30/08:30am 24.2 28.6 22.1 88 1.4 SSE 2 4 1 2 1016.1 1016.1 0.0
30/08:00am 22.3 26.6 22.0 98 0.2 SE 2 4 1 2 1015.9 - 0.0
30/07:30am 19.9 23.3 19.4 97 0.3 CALM 0 0 0 0 1015.4 1015.4 0.0
30/07:00am 19.5 22.7 18.8 96 0.4 CALM 0 0 0 0 1015.1 - 0.0
30/06:30am 20.0 23.4 19.3 96 0.4 CALM 0 0 0 0 1014.8 1014.8 0.0
30/06:00am 19.8 23.1 19.1 96 0.4 CALM 0 0 0 0 1014.7 1014.7 0.0
30/05:30am 19.8 23.1 19.0 95 0.5 CALM 0 0 0 0 1014.6 1014.6 0.0
30/05:00am 20.0 23.3 19.2 95 0.5 CALM 0 0 0 0 1014.6 - 0.0
30/04:30am 19.9 23.0 18.7 93 0.7 CALM 0 0 0 0 1014.3 1014.3 0.0
30/04:00am 20.3 23.2 19.1 93 0.8 E 2 4 1 2 1014.2 - 0.0
30/03:30am 20.5 23.0 19.0 91 0.9 E 4 6 2 3 1014.4 1014.4 0.0
30/03:00am 21.2 23.8 20.0 93 0.8 E 6 9 3 5 1014.3 1014.3 0.0
30/02:30am 20.3 22.8 19.0 92 0.8 E 4 6 2 3 1014.4 1014.4 0.0
30/02:00am 20.3 22.7 18.8 91 0.9 E 4 4 2 2 1014.3 - 0.0
30/01:30am 20.5 23.5 19.2 92 0.8 SE 2 4 1 2 1014.5 1014.5 0.0
30/01:00am 20.7 24.1 19.4 92 0.8 CALM 0 0 0 0 1014.7 - 0.0
30/12:30am 21.1 24.8 19.9 93 0.8 CALM 0 0 0 0 1014.8 1014.8 0.0
30/12:00am 21.4 25.1 20.0 92 0.9 SSE 0 0 0 0 1014.8 1014.8 0.0
 
Date/Time
CST
Tmp

°C
App
Tmp
°C
Dew
Point
°C
Rel
Hum
%
Delta-T

°C
Wind Press
QNH
hPa
Press
MSL
hPa
Rain
since
9 am
mm
Dir
 
Spd
km/h
Gust
km/h
Spd
kts
Gust
kts
29/11:30pm 21.4 24.3 19.1 87 1.5 SSE 2 4 1 2 1014.8 1014.8 0.0
29/11:00pm 20.8 23.2 18.0 84 1.7 SSE 2 2 1 1 1014.9 - 0.0
29/10:30pm 20.8 23.4 17.6 82 2.0 CALM 0 0 0 0 1015.1 1015.1 0.0
29/10:00pm 20.9 23.6 17.7 82 2.0 CALM 0 0 0 0 1014.9 - 0.0
29/09:30pm 21.2 24.0 18.0 82 2.0 CALM 0 0 0 0 1014.7 1014.7 0.0
29/09:00pm 21.5 23.8 17.7 79 2.3 NNE 2 6 1 3 1014.4 1014.4 0.0
29/08:30pm 22.1 25.0 18.1 78 2.5 CALM 0 0 0 0 1014.2 1014.2 0.0
29/08:00pm 23.1 25.1 17.8 72 3.3 N 4 6 2 3 1013.9 - 0.0
29/07:30pm 24.7 26.6 18.6 69 3.9 N 6 9 3 5 1013.6 1013.6 0.0
29/07:00pm 25.4 27.6 19.3 69 3.9 N 6 7 3 4 1013.2 - 0.0
29/06:30pm 26.2 28.4 19.3 65 4.4 N 6 11 3 6 1012.9 1012.9 0.0
29/06:00pm 27.1 29.0 19.7 64 4.8 N 9 13 5 7 1012.7 1012.7 0.0
29/05:30pm 27.9 29.8 20.5 64 4.9 N 11 19 6 10 1012.4 1012.4 0.0
29/05:00pm 28.3 30.7 20.8 63 5.0 NNW 9 17 5 9 1012.2 - 0.0
29/04:30pm 28.8 29.3 20.0 59 5.8 N 17 24 9 13 1011.7 1011.7 0.0
29/04:15pm 29.1 30.3 19.1 54 6.5 NNE 11 26 6 14 1011.7 - 0.0
29/04:00pm 34.2 32.9 12.5 27 13.0 E 11 19 6 10 1011.7 - 0.0
29/03:30pm 33.4 31.3 12.4 28 12.5 E 15 22 8 12 1011.8 1011.8 0.0
29/03:00pm 33.1 31.3 13.2 30 12.0 ESE 15 20 8 11 1012.1 1012.1 0.0
29/02:30pm 33.3 31.7 13.9 31 11.8 E 15 22 8 12 1012.5 1012.5 0.0
29/02:00pm 32.5 31.2 13.7 32 11.4 ESE 13 24 7 13 1013.0 - 0.0
29/01:30pm 32.0 30.8 15.1 36 10.4 E 15 24 8 13 1013.4 1013.4 0.0
29/01:00pm 31.9 30.4 15.4 37 10.2 E 17 24 9 13 1014.0 - 0.0
29/12:30pm 31.6 30.9 15.5 37 10.0 E 13 22 7 12 1014.5 1014.5 0.0
29/12:00pm 30.7 29.8 15.9 40 9.2 E 15 24 8 13 1015.0 1015.0 0.0
29/11:30am 29.9 29.2 16.3 43 8.5 E 15 24 8 13 1015.4 1015.4 0.0
29/11:00am 28.5 28.7 18.6 55 6.4 E 15 20 8 11 1015.8 - 0.0
29/10:30am 28.1 28.9 19.1 58 5.8 E 13 19 7 10 1016.3 1016.3 0.0
29/10:00am 27.5 29.0 19.8 63 5.0 E 11 17 6 9 1016.4 - 0.0
29/09:30am 26.5 29.0 20.3 68 4.0 E 7 13 4 7 1016.4 1016.4 0.0
29/09:00am 25.4 27.0 19.1 68 4.0 E 9 13 5 7 1016.5 1016.5 0.0
29/08:30am 24.5 27.2 20.2 77 2.8 ESE 6 9 3 5 1016.1 1016.1 0.0
29/08:00am 22.9 26.3 21.7 93 0.8 E 6 7 3 4 1015.9 - 0.0
29/07:30am 20.7 23.5 20.4 98 0.2 ESE 6 7 3 4 1015.6 1015.6 0.0
29/07:00am 19.3 21.2 18.5 95 0.5 E 6 7 3 4 1015.3 - 0.0
29/06:30am 19.2 21.6 18.0 93 0.7 ESE 2 4 1 2 1015.0 1015.0 0.0
29/06:00am 19.6 21.9 18.6 94 0.6 E 4 6 2 3 1014.8 1014.8 0.0
29/05:30am 19.9 22.3 18.9 94 0.6 E 4 4 2 2 1014.6 1014.6 0.0
29/05:00am 20.3 22.9 19.3 94 0.6 ESE 4 4 2 2 1014.5 - 0.0
29/04:30am 21.3 24.3 20.8 97 0.3 E 6 7 3 4 1014.3 1014.3 0.0
29/04:00am 20.3 22.9 19.3 94 0.6 E 4 6 2 3 1014.3 - 0.0
29/03:30am 20.9 23.4 19.9 94 0.6 E 6 7 3 4 1014.1 1014.1 0.0
29/03:00am 20.3 22.9 19.3 94 0.6 E 4 6 2 3 1014.1 1014.1 0.0
29/02:30am 20.1 22.4 18.6 91 0.9 ESE 4 4 2 2 1014.3 1014.3 0.0
29/02:00am 21.0 23.9 19.1 89 1.2 SE 2 4 1 2 1014.4 - 0.0
29/01:30am 22.0 25.1 20.3 90 1.1 SSE 4 4 2 2 1014.6 1014.6 0.0
29/01:00am 22.4 26.1 20.7 90 1.1 SSE 2 4 1 2 1014.8 - 0.0
29/12:30am 22.1 25.2 20.2 89 1.2 SSE 4 4 2 2 1014.8 1014.8 0.0
29/12:00am 22.2 25.9 19.9 87 1.5 CALM 0 0 0 0 1014.8 1014.8 0.0
 
Date/Time
CST
Tmp

°C
App
Tmp
°C
Dew
Point
°C
Rel
Hum
%
Delta-T

°C
Wind Press
QNH
hPa
Press
MSL
hPa
Rain
since
9 am
mm
Dir
 
Spd
km/h
Gust
km/h
Spd
kts
Gust
kts
28/11:30pm 22.5 26.1 20.6 89 1.2 SSE 2 4 1 2 1014.9 1014.9 0.0
28/11:00pm 22.3 25.4 20.2 88 1.4 S 4 6 2 3 1014.9 - 0.0
28/10:30pm 21.6 24.2 19.2 86 1.5 SSE 4 4 2 2 1014.8 1014.8 0.0
28/10:00pm 21.1 23.4 18.5 85 1.6 SSW 4 6 2 3 1014.8 - 0.0
28/09:30pm 21.2 24.2 18.4 84 1.7 CALM 0 0 0 0 1014.6 1014.6 0.0
28/09:00pm 21.9 25.0 18.7 82 2.0 CALM 0 2 0 1 1014.5 1014.5 0.0
28/08:30pm 22.3 25.4 18.7 80 2.3 CALM 0 0 0 0 1014.3 1014.3 0.0
28/08:00pm 23.9 26.4 19.0 74 3.1 NW 4 6 2 3 1013.9 - 0.0
28/07:30pm 24.5 27.3 19.6 74 3.2 NW 4 6 2 3 1013.7 1013.7 0.0
28/07:00pm 25.0 27.5 19.1 70 3.8 NW 4 9 2 5 1013.3 - 0.0
28/06:30pm 25.4 27.6 19.3 69 3.9 NW 6 11 3 6 1013.0 1013.0 0.0
28/06:00pm 26.5 28.9 19.6 66 4.5 WNW 6 11 3 6 1012.7 1012.7 0.0
28/05:30pm 27.0 29.0 19.1 62 5.1 NW 7 13 4 7 1012.4 1012.4 0.0
28/05:00pm 27.4 29.0 19.2 61 5.3 NNW 9 17 5 9 1012.3 - 0.0
28/04:30pm 27.3 28.4 18.9 60 5.4 NNW 11 17 6 9 1012.2 1012.2 0.0
28/04:00pm 27.9 29.2 19.4 60 5.5 NW 11 20 6 11 1012.3 - 0.0
28/03:30pm 28.1 29.0 19.3 58 5.7 NNW 13 20 7 11 1012.3 1012.3 0.0
28/03:00pm 28.6 28.5 18.7 55 6.4 NNW 17 24 9 13 1012.5 1012.5 0.0
28/02:30pm 32.4 30.2 12.1 29 12.0 ENE 15 26 8 14 1012.8 1012.8 0.0
28/02:00pm 32.7 31.4 13.8 31 11.5 E 13 24 7 13 1013.2 - 0.0
28/01:30pm 31.9 30.5 14.5 34 10.6 E 15 24 8 13 1013.7 1013.7 0.0
28/01:00pm 31.3 29.6 13.6 34 10.6 ENE 15 22 8 12 1014.1 - 0.0
28/12:30pm 31.0 29.1 14.2 36 10.2 E 17 24 9 13 1014.6 1014.6 0.0
28/12:00pm 30.1 27.9 13.4 36 10.0 E 17 30 9 16 1015.2 1015.2 0.0
28/11:30am 29.7 27.5 14.3 39 9.3 E 19 28 10 15 1015.8 1015.8 0.0
28/11:00am 28.9 28.4 15.8 45 8.1 E 13 17 7 9 1016.3 - 0.0
28/10:30am 28.7 28.6 15.9 45 7.9 E 11 20 6 11 1016.5 1016.5 0.0
28/10:00am 28.3 29.8 18.1 54 6.5 E 7 11 4 6 1016.6 - 0.0
28/09:30am 26.9 29.4 19.8 65 4.6 ESE 6 11 3 6 1016.6 1016.6 0.0
28/09:00am 25.6 27.8 19.7 70 3.8 E 7 11 4 6 1016.6 1016.6 0.0
28/08:30am 24.3 27.1 20.4 79 2.5 ESE 6 9 3 5 1016.5 1016.5 0.0
28/08:00am 22.5 25.8 20.8 90 1.1 ESE 4 7 2 4 1016.1 - 0.0
28/07:30am 21.0 23.7 20.2 95 0.5 E 6 9 3 5 1015.8 1015.8 0.0
28/07:00am 19.6 21.7 18.9 96 0.4 E 6 7 3 4 1015.5 - 0.0
28/06:30am 18.9 20.9 17.9 94 0.6 E 4 6 2 3 1015.2 1015.2 0.0
28/06:00am 19.8 22.3 19.1 96 0.4 ESE 4 7 2 4 1015.0 1015.0 0.0
28/05:30am 19.6 22.4 18.8 95 0.5 SE 2 4 1 2 1014.6 1014.6 0.0
28/05:00am 19.8 22.2 18.8 94 0.6 ESE 4 4 2 2 1014.5 - 0.0
28/04:30am 19.9 22.3 18.9 94 0.6 E 4 4 2 2 1014.4 1014.4 0.0
28/04:00am 19.7 22.0 18.5 93 0.7 ENE 4 4 2 2 1014.3 - 0.0
28/03:30am 20.2 22.7 19.0 93 0.8 E 4 6 2 3 1014.4 1014.4 0.0
28/03:00am 20.8 23.9 19.6 93 0.8 E 2 4 1 2 1014.6 1014.6 0.0
28/02:30am 20.8 23.7 19.8 94 0.6 E 4 6 2 3 1014.9 1014.9 0.0
28/02:00am 20.9 24.2 19.9 94 0.6 SSE 2 4 1 2 1014.8 - 0.0
28/01:30am 20.8 24.0 19.8 94 0.6 S 2 4 1 2 1015.1 1015.1 0.0
28/01:00am 21.1 24.8 19.9 93 0.8 CALM 0 0 0 0 1015.2 - 0.0
28/12:30am 21.0 24.3 19.1 89 1.2 CALM 0 0 0 0 1015.4 1015.4 0.0
28/12:00am 21.8 25.4 19.7 88 1.3 CALM 0 0 0 0 1015.5 1015.5 0.0
 
Date/Time
CST
Tmp

°C
App
Tmp
°C
Dew
Point
°C
Rel
Hum
%
Delta-T

°C
Wind Press
QNH
hPa
Press
MSL
hPa
Rain
since
9 am
mm
Dir
 
Spd
km/h
Gust
km/h
Spd
kts
Gust
kts
27/11:30pm 22.7 26.0 20.0 85 1.7 S 2 4 1 2 1015.6 1015.6 0.0
27/11:00pm 23.2 26.6 20.2 83 1.9 S 2 4 1 2 1015.7 - 0.0
27/10:30pm 24.1 27.7 20.6 81 2.3 S 2 4 1 2 1015.7 1015.7 0.0
27/10:00pm 24.7 28.5 21.0 80 2.4 S 2 7 1 4 1015.8 - 0.0
27/09:30pm 24.2 27.4 20.5 80 2.4 SSW 4 6 2 3 1015.6 1015.6 0.0
27/09:00pm 24.0 27.5 20.3 80 2.4 SSW 2 4 1 2 1015.5 1015.5 0.0

Latest Capital City Observations: Canberra | Sydney | Melbourne | Brisbane | Adelaide | Perth | Hobart | Darwin

Other Formats:

Comma delimited format used in spreadsheet applications
http://www.bom.gov.au/fwo/IDD60901/IDD60901.94116.axf

JavaScript Object Notation format (JSON) in row-major order
http://www.bom.gov.au/fwo/IDD60901/IDD60901.94116.json